Terminal Aerodrome Forecast
Issued by NWS

Home | Current Version | Previous Version | Text Only | Print | Product List | Glossary On
Versions: 1 2 3 4 5 6 7 8 9 10 11 12 13 14 15 16 17 18 19 20 21 22
834
FTUS43 KLSX 131127
TAFSUS
TAF
KSUS 131127Z 1312/1412 35007KT P6SM BKN150
     FM132200 05005KT P6SM OVC080
     FM140300 11005KT P6SM OVC050=

USA.gov is the U.S. government's official web portal to all federal, state and local government web resources and services.